sensor_id;sensor_type;location;lat;lon;timestamp;pressure;altitude;pressure_sealevel;temperature;humidity
9335;BME280;4706;41.844;26.082;2023-04-02T00:11:46;99805.50;;;13.64;66.59
9335;BME280;4706;41.844;26.082;2023-04-02T00:16:40;99813.06;;;13.55;65.18
9335;BME280;4706;41.844;26.082;2023-04-02T00:19:10;99796.59;;;13.25;66.71
9335;BME280;4706;41.844;26.082;2023-04-02T00:21:38;99808.66;;;13.12;66.11
9335;BME280;4706;41.844;26.082;2023-04-02T00:24:13;99815.44;;;13.23;65.32
9335;BME280;4706;41.844;26.082;2023-04-02T00:26:42;99799.41;;;13.17;65.30
9335;BME280;4706;41.844;26.082;2023-04-02T00:29:11;99795.59;;;13.00;65.47
9335;BME280;4706;41.844;26.082;2023-04-02T00:31:40;99815.97;;;13.17;66.12
9335;BME280;4706;41.844;26.082;2023-04-02T00:34:08;99819.53;;;13.17;66.89
9335;BME280;4706;41.844;26.082;2023-04-02T00:36:38;99821.81;;;13.15;67.16
9335;BME280;4706;41.844;26.082;2023-04-02T00:39:11;99819.31;;;13.22;67.38
9335;BME280;4706;41.844;26.082;2023-04-02T00:41:40;99807.28;;;13.27;67.41
9335;BME280;4706;41.844;26.082;2023-04-02T00:44:15;99809.22;;;13.47;66.16
9335;BME280;4706;41.844;26.082;2023-04-02T00:46:47;99806.25;;;13.52;65.80
9335;BME280;4706;41.844;26.082;2023-04-02T00:49:21;99812.88;;;13.39;65.67
9335;BME280;4706;41.844;26.082;2023-04-02T00:51:58;99818.53;;;13.43;66.17
9335;BME280;4706;41.844;26.082;2023-04-02T00:54:26;99816.22;;;13.45;65.52
9335;BME280;4706;41.844;26.082;2023-04-02T00:56:56;99817.03;;;13.45;65.96
9335;BME280;4706;41.844;26.082;2023-04-02T00:59:46;99827.38;;;13.36;65.88
9335;BME280;4706;41.844;26.082;2023-04-02T01:04:39;99830.13;;;13.36;66.80
9335;BME280;4706;41.844;26.082;2023-04-02T01:07:08;99829.50;;;13.30;66.34
9335;BME280;4706;41.844;26.082;2023-04-02T01:09:47;99832.94;;;13.27;66.06
9335;BME280;4706;41.844;26.082;2023-04-02T01:12:33;99829.06;;;13.20;65.53
9335;BME280;4706;41.844;26.082;2023-04-02T01:15:26;99823.41;;;13.25;65.45
9335;BME280;4706;41.844;26.082;2023-04-02T01:18:16;99828.41;;;13.23;65.23
9335;BME280;4706;41.844;26.082;2023-04-02T01:23:29;99825.81;;;13.26;64.26
9335;BME280;4706;41.844;26.082;2023-04-02T01:31:21;99839.75;;;13.30;63.48
9335;BME280;4706;41.844;26.082;2023-04-02T01:33:47;99834.44;;;13.25;63.47
9335;BME280;4706;41.844;26.082;2023-04-02T01:41:46;99825.28;;;13.03;66.82
9335;BME280;4706;41.844;26.082;2023-04-02T01:44:26;99826.63;;;12.97;65.98
9335;BME280;4706;41.844;26.082;2023-04-02T01:46:53;99821.59;;;12.99;65.18
9335;BME280;4706;41.844;26.082;2023-04-02T01:49:23;99834.25;;;13.00;65.51
9335;BME280;4706;41.844;26.082;2023-04-02T01:51:51;99835.75;;;12.98;65.79
9335;BME280;4706;41.844;26.082;2023-04-02T01:54:20;99823.28;;;12.92;66.33
9335;BME280;4706;41.844;26.082;2023-04-02T01:56:46;99827.84;;;13.08;65.94
9335;BME280;4706;41.844;26.082;2023-04-02T01:59:13;99822.09;;;13.01;66.36
9335;BME280;4706;41.844;26.082;2023-04-02T02:01:44;99818.63;;;13.04;65.77
9335;BME280;4706;41.844;26.082;2023-04-02T02:04:14;99815.59;;;12.97;65.78
9335;BME280;4706;41.844;26.082;2023-04-02T02:06:41;99828.78;;;12.92;66.39
9335;BME280;4706;41.844;26.082;2023-04-02T02:09:11;99826.56;;;12.85;66.52
9335;BME280;4706;41.844;26.082;2023-04-02T02:11:40;99829.59;;;12.92;66.31
9335;BME280;4706;41.844;26.082;2023-04-02T02:14:23;99824.28;;;12.87;66.49
9335;BME280;4706;41.844;26.082;2023-04-02T02:16:49;99828.66;;;12.88;65.99
9335;BME280;4706;41.844;26.082;2023-04-02T02:19:46;99832.41;;;12.83;65.41
9335;BME280;4706;41.844;26.082;2023-04-02T02:24:39;99831.47;;;13.00;64.05
9335;BME280;4706;41.844;26.082;2023-04-02T02:29:51;99828.75;;;12.71;63.43
9335;BME280;4706;41.844;26.082;2023-04-02T02:32:19;99840.88;;;12.78;63.12
9335;BME280;4706;41.844;26.082;2023-04-02T02:37:36;99837.28;;;12.48;62.50
9335;BME280;4706;41.844;26.082;2023-04-02T02:40:10;99838.47;;;12.38;63.48
9335;BME280;4706;41.844;26.082;2023-04-02T02:42:48;99828.22;;;12.48;62.10
9335;BME280;4706;41.844;26.082;2023-04-02T02:45:20;99842.13;;;12.60;62.88
9335;BME280;4706;41.844;26.082;2023-04-02T02:47:47;99835.41;;;12.70;61.57
9335;BME280;4706;41.844;26.082;2023-04-02T02:50:20;99835.78;;;12.59;61.57
9335;BME280;4706;41.844;26.082;2023-04-02T02:52:52;99842.06;;;12.39;62.41
9335;BME280;4706;41.844;26.082;2023-04-02T02:55:34;99845.25;;;12.41;63.02
9335;BME280;4706;41.844;26.082;2023-04-02T02:58:24;99849.66;;;12.42;63.76
9335;BME280;4706;41.844;26.082;2023-04-02T03:00:52;99857.44;;;12.49;64.73
9335;BME280;4706;41.844;26.082;2023-04-02T03:03:21;99850.66;;;12.29;64.06
9335;BME280;4706;41.844;26.082;2023-04-02T03:05:58;99853.53;;;12.41;64.07
9335;BME280;4706;41.844;26.082;2023-04-02T03:08:30;99810.97;;;12.21;63.34
9335;BME280;4706;41.844;26.082;2023-04-02T03:11:05;99829.81;;;12.19;65.05
9335;BME280;4706;41.844;26.082;2023-04-02T03:13:34;99850.06;;;12.14;66.53
9335;BME280;4706;41.844;26.082;2023-04-02T03:21:40;99851.53;;;12.21;65.48
9335;BME280;4706;41.844;26.082;2023-04-02T03:24:22;99856.69;;;12.31;65.18
9335;BME280;4706;41.844;26.082;2023-04-02T03:26:57;99850.38;;;12.30;65.40
9335;BME280;4706;41.844;26.082;2023-04-02T03:29:28;99860.84;;;12.37;65.34
9335;BME280;4706;41.844;26.082;2023-04-02T03:31:56;99866.88;;;12.39;65.04
9335;BME280;4706;41.844;26.082;2023-04-02T03:34:29;99868.00;;;12.38;64.90
9335;BME280;4706;41.844;26.082;2023-04-02T03:39:48;99867.47;;;12.53;64.51
9335;BME280;4706;41.844;26.082;2023-04-02T03:42:22;99858.19;;;12.58;64.32
9335;BME280;4706;41.844;26.082;2023-04-02T03:45:02;99869.84;;;12.63;65.05
9335;BME280;4706;41.844;26.082;2023-04-02T03:52:27;99872.06;;;12.70;64.85
9335;BME280;4706;41.844;26.082;2023-04-02T03:54:55;99876.34;;;12.68;64.64
9335;BME280;4706;41.844;26.082;2023-04-02T03:57:28;99881.66;;;12.73;64.00
9335;BME280;4706;41.844;26.082;2023-04-02T04:00:06;99872.88;;;12.71;64.56
9335;BME280;4706;41.844;26.082;2023-04-02T04:04:59;99876.78;;;12.70;64.39
9335;BME280;4706;41.844;26.082;2023-04-02T04:07:39;99885.88;;;12.70;64.30
9335;BME280;4706;41.844;26.082;2023-04-02T04:10:07;99894.81;;;12.67;64.26
9335;BME280;4706;41.844;26.082;2023-04-02T04:12:42;99909.44;;;12.68;64.69
9335;BME280;4706;41.844;26.082;2023-04-02T04:15:17;99911.50;;;12.71;64.06
9335;BME280;4706;41.844;26.082;2023-04-02T04:20:25;99911.19;;;12.72;64.31
9335;BME280;4706;41.844;26.082;2023-04-02T04:22:52;99905.69;;;12.72;64.47
9335;BME280;4706;41.844;26.082;2023-04-02T04:25:29;99912.63;;;12.78;64.74
9335;BME280;4706;41.844;26.082;2023-04-02T04:28:21;99918.91;;;12.87;64.38
9335;BME280;4706;41.844;26.082;2023-04-02T04:30:52;99918.06;;;12.96;65.22
9335;BME280;4706;41.844;26.082;2023-04-02T04:33:27;99915.66;;;12.94;64.43
9335;BME280;4706;41.844;26.082;2023-04-02T04:36:05;99915.66;;;12.94;64.07
9335;BME280;4706;41.844;26.082;2023-04-02T04:38:41;99921.97;;;12.95;64.01
9335;BME280;4706;41.844;26.082;2023-04-02T04:41:22;99924.53;;;13.00;64.05
9335;BME280;4706;41.844;26.082;2023-04-02T04:44:14;99925.16;;;13.05;64.04
9335;BME280;4706;41.844;26.082;2023-04-02T04:46:58;99915.06;;;13.09;63.81
9335;BME280;4706;41.844;26.082;2023-04-02T04:49:40;99917.78;;;13.18;63.95
9335;BME280;4706;41.844;26.082;2023-04-02T04:52:11;99919.38;;;13.19;64.30
9335;BME280;4706;41.844;26.082;2023-04-02T04:54:38;99926.53;;;13.20;64.57
9335;BME280;4706;41.844;26.082;2023-04-02T04:57:05;99929.44;;;13.24;63.54
9335;BME280;4706;41.844;26.082;2023-04-02T04:59:43;99926.50;;;13.29;63.49
9335;BME280;4706;41.844;26.082;2023-04-02T05:02:17;99919.38;;;13.28;63.84
9335;BME280;4706;41.844;26.082;2023-04-02T05:04:48;99924.84;;;13.36;63.72
9335;BME280;4706;41.844;26.082;2023-04-02T05:07:19;99915.88;;;13.40;63.53
9335;BME280;4706;41.844;26.082;2023-04-02T05:12:41;99920.41;;;13.44;62.92
9335;BME280;4706;41.844;26.082;2023-04-02T05:17:40;99925.66;;;13.58;62.51
9335;BME280;4706;41.844;26.082;2023-04-02T05:20:25;99923.50;;;13.64;62.57
9335;BME280;4706;41.844;26.082;2023-04-02T05:28:13;99928.09;;;13.80;61.74
9335;BME280;4706;41.844;26.082;2023-04-02T05:30:54;99920.59;;;13.81;61.91
9335;BME280;4706;41.844;26.082;2023-04-02T05:33:25;99929.63;;;13.90;61.80
9335;BME280;4706;41.844;26.082;2023-04-02T05:36:06;99925.03;;;13.94;61.13
9335;BME280;4706;41.844;26.082;2023-04-02T05:38:34;99928.28;;;13.96;60.90
9335;BME280;4706;41.844;26.082;2023-04-02T05:43:46;99927.38;;;14.04;60.46
9335;BME280;4706;41.844;26.082;2023-04-02T05:46:35;99932.00;;;14.13;60.27
9335;BME280;4706;41.844;26.082;2023-04-02T05:49:05;99919.94;;;14.17;59.74
9335;BME280;4706;41.844;26.082;2023-04-02T05:51:42;99920.66;;;14.26;60.20
9335;BME280;4706;41.844;26.082;2023-04-02T05:54:20;99926.22;;;14.39;60.19
9335;BME280;4706;41.844;26.082;2023-04-02T05:56:52;99884.78;;;14.18;59.98
9335;BME280;4706;41.844;26.082;2023-04-02T05:59:28;99932.59;;;14.51;59.71
9335;BME280;4706;41.844;26.082;2023-04-02T06:02:02;99936.78;;;14.57;59.43
9335;BME280;4706;41.844;26.082;2023-04-02T06:04:45;99937.16;;;14.68;57.96
9335;BME280;4706;41.844;26.082;2023-04-02T06:07:17;99933.34;;;14.61;57.90
9335;BME280;4706;41.844;26.082;2023-04-02T06:10:00;99942.25;;;14.78;57.83
9335;BME280;4706;41.844;26.082;2023-04-02T06:12:52;99942.94;;;14.88;57.00
9335;BME280;4706;41.844;26.082;2023-04-02T06:15:20;99948.84;;;14.98;57.00
9335;BME280;4706;41.844;26.082;2023-04-02T06:17:47;99952.41;;;15.11;56.74
9335;BME280;4706;41.844;26.082;2023-04-02T06:20:17;99941.44;;;15.02;56.60
9335;BME280;4706;41.844;26.082;2023-04-02T06:22:44;99945.59;;;15.21;56.39
9335;BME280;4706;41.844;26.082;2023-04-02T06:25:36;99951.81;;;15.30;53.95
9335;BME280;4706;41.844;26.082;2023-04-02T06:28:05;99949.03;;;15.30;54.78
9335;BME280;4706;41.844;26.082;2023-04-02T06:30:38;99952.63;;;15.30;54.97
9335;BME280;4706;41.844;26.082;2023-04-02T06:33:06;99941.53;;;15.30;55.35
9335;BME280;4706;41.844;26.082;2023-04-02T06:35:34;99947.78;;;15.40;55.47
9335;BME280;4706;41.844;26.082;2023-04-02T06:38:03;99957.13;;;15.47;55.59
9335;BME280;4706;41.844;26.082;2023-04-02T06:42:56;99965.19;;;15.52;56.13
9335;BME280;4706;41.844;26.082;2023-04-02T06:45:29;99963.25;;;15.65;54.56
9335;BME280;4706;41.844;26.082;2023-04-02T06:47:59;99969.56;;;15.78;54.36
9335;BME280;4706;41.844;26.082;2023-04-02T06:50:45;99975.09;;;15.78;54.45
9335;BME280;4706;41.844;26.082;2023-04-02T06:53:36;99976.81;;;15.83;54.24
9335;BME280;4706;41.844;26.082;2023-04-02T06:58:56;99969.50;;;16.02;54.32
9335;BME280;4706;41.844;26.082;2023-04-02T07:01:26;99978.47;;;16.12;53.94
9335;BME280;4706;41.844;26.082;2023-04-02T07:03:52;99985.13;;;16.23;54.08
9335;BME280;4706;41.844;26.082;2023-04-02T07:06:20;99974.53;;;16.41;53.37
9335;BME280;4706;41.844;26.082;2023-04-02T07:08:46;99976.06;;;16.54;53.51
9335;BME280;4706;41.844;26.082;2023-04-02T07:11:14;99989.44;;;16.64;52.64
9335;BME280;4706;41.844;26.082;2023-04-02T07:13:42;99982.19;;;16.60;53.15
9335;BME280;4706;41.844;26.082;2023-04-02T07:16:22;99975.34;;;16.57;53.16
9335;BME280;4706;41.844;26.082;2023-04-02T07:18:52;99980.22;;;16.60;52.84
9335;BME280;4706;41.844;26.082;2023-04-02T07:21:17;99980.84;;;16.69;52.59
9335;BME280;4706;41.844;26.082;2023-04-02T07:23:43;99988.59;;;16.76;51.85
9335;BME280;4706;41.844;26.082;2023-04-02T07:26:13;99995.88;;;16.96;51.28
9335;BME280;4706;41.844;26.082;2023-04-02T07:28:40;99993.81;;;17.09;50.98
9335;BME280;4706;41.844;26.082;2023-04-02T07:31:23;99991.81;;;17.41;49.86
9335;BME280;4706;41.844;26.082;2023-04-02T07:33:50;99986.38;;;17.64;49.53
9335;BME280;4706;41.844;26.082;2023-04-02T07:36:18;99989.72;;;17.89;49.20
9335;BME280;4706;41.844;26.082;2023-04-02T07:38:45;99980.16;;;18.26;48.80
9335;BME280;4706;41.844;26.082;2023-04-02T07:41:11;99982.31;;;18.55;48.17
9335;BME280;4706;41.844;26.082;2023-04-02T07:43:37;99978.41;;;18.79;47.05
9335;BME280;4706;41.844;26.082;2023-04-02T07:46:03;99966.22;;;18.87;45.28
9335;BME280;4706;41.844;26.082;2023-04-02T07:48:29;99968.19;;;19.10;45.88
9335;BME280;4706;41.844;26.082;2023-04-02T07:50:55;99956.19;;;19.32;45.18
9335;BME280;4706;41.844;26.082;2023-04-02T07:53:32;99972.84;;;19.78;43.90
9335;BME280;4706;41.844;26.082;2023-04-02T07:56:00;99972.00;;;20.08;42.30
9335;BME280;4706;41.844;26.082;2023-04-02T07:58:26;99963.50;;;20.31;39.79
9335;BME280;4706;41.844;26.082;2023-04-02T08:00:52;99964.81;;;20.41;39.89
9335;BME280;4706;41.844;26.082;2023-04-02T08:03:18;99970.00;;;20.38;40.45
9335;BME280;4706;41.844;26.082;2023-04-02T08:05:55;99974.69;;;20.31;38.96
9335;BME280;4706;41.844;26.082;2023-04-02T08:08:22;99968.56;;;20.18;39.92
9335;BME280;4706;41.844;26.082;2023-04-02T08:10:48;99975.94;;;20.03;38.76
9335;BME280;4706;41.844;26.082;2023-04-02T08:13:14;99984.53;;;19.87;40.26
9335;BME280;4706;41.844;26.082;2023-04-02T08:15:41;99980.69;;;19.69;40.55
9335;BME280;4706;41.844;26.082;2023-04-02T08:18:07;99988.44;;;19.83;40.51
9335;BME280;4706;41.844;26.082;2023-04-02T08:20:33;99988.13;;;19.88;40.41
9335;BME280;4706;41.844;26.082;2023-04-02T08:22:58;99977.22;;;20.09;40.25
9335;BME280;4706;41.844;26.082;2023-04-02T08:25:26;99981.31;;;20.19;39.45
9335;BME280;4706;41.844;26.082;2023-04-02T08:27:52;99987.94;;;20.37;39.39
9335;BME280;4706;41.844;26.082;2023-04-02T08:30:18;99984.94;;;20.50;38.72
9335;BME280;4706;41.844;26.082;2023-04-02T08:32:44;99974.09;;;20.48;39.06
9335;BME280;4706;41.844;26.082;2023-04-02T08:35:12;99981.25;;;20.83;38.41
9335;BME280;4706;41.844;26.082;2023-04-02T08:37:39;99978.63;;;21.01;37.79
9335;BME280;4706;41.844;26.082;2023-04-02T08:40:06;99973.03;;;21.01;38.35
9335;BME280;4706;41.844;26.082;2023-04-02T08:47:53;99983.78;;;20.95;36.93
9335;BME280;4706;41.844;26.082;2023-04-02T08:50:34;99979.53;;;20.71;38.52
9335;BME280;4706;41.844;26.082;2023-04-02T08:53:17;99983.66;;;20.81;38.35
9335;BME280;4706;41.844;26.082;2023-04-02T08:56:08;99967.34;;;20.90;38.28
9335;BME280;4706;41.844;26.082;2023-04-02T08:58:46;99969.84;;;21.02;37.80
9335;BME280;4706;41.844;26.082;2023-04-02T09:03:58;99968.53;;;21.33;37.23
9335;BME280;4706;41.844;26.082;2023-04-02T09:06:25;99970.19;;;21.42;36.43
9335;BME280;4706;41.844;26.082;2023-04-02T09:08:54;99973.00;;;21.42;36.64
9335;BME280;4706;41.844;26.082;2023-04-02T09:11:24;99979.47;;;21.53;36.28
9335;BME280;4706;41.844;26.082;2023-04-02T09:13:56;99962.03;;;21.81;36.09
9335;BME280;4706;41.844;26.082;2023-04-02T09:16:37;99960.22;;;22.17;nan
9335;BME280;4706;41.844;26.082;2023-04-02T09:19:17;99972.31;;;22.36;34.40
9335;BME280;4706;41.844;26.082;2023-04-02T09:24:30;99977.25;;;22.92;34.17
9335;BME280;4706;41.844;26.082;2023-04-02T09:26:56;99977.66;;;23.16;33.89
9335;BME280;4706;41.844;26.082;2023-04-02T09:29:35;99967.63;;;23.29;32.84
9335;BME280;4706;41.844;26.082;2023-04-02T09:33:04;99982.84;;;23.67;33.80
9335;BME280;4706;41.844;26.082;2023-04-02T09:35:25;99978.31;;;24.02;31.24
9335;BME280;4706;41.844;26.082;2023-04-02T09:38:10;99971.06;;;24.19;30.36
9335;BME280;4706;41.844;26.082;2023-04-02T09:41:18;99968.75;;;23.96;29.11
9335;BME280;4706;41.844;26.082;2023-04-02T09:43:43;99966.69;;;24.07;30.07
9335;BME280;4706;41.844;26.082;2023-04-02T09:48:56;99962.59;;;24.26;29.34
9335;BME280;4706;41.844;26.082;2023-04-02T09:51:29;99966.94;;;24.38;29.62
9335;BME280;4706;41.844;26.082;2023-04-02T09:56:33;99964.94;;;24.45;27.59
9335;BME280;4706;41.844;26.082;2023-04-02T10:01:45;99956.00;;;24.58;28.45
9335;BME280;4706;41.844;26.082;2023-04-02T10:07:42;99969.06;;;24.86;27.82
9335;BME280;4706;41.844;26.082;2023-04-02T10:10:21;99966.16;;;25.00;28.21
9335;BME280;4706;41.844;26.082;2023-04-02T10:13:00;99956.94;;;24.96;26.84
9335;BME280;4706;41.844;26.082;2023-04-02T10:16:16;99967.31;;;25.06;26.56
9335;BME280;4706;41.844;26.082;2023-04-02T10:20:44;99958.16;;;24.95;25.70
9335;BME280;4706;41.844;26.082;2023-04-02T10:23:23;99954.16;;;24.92;26.59
9335;BME280;4706;41.844;26.082;2023-04-02T10:26:02;99942.47;;;24.98;26.64
9335;BME280;4706;41.844;26.082;2023-04-02T10:31:22;99954.53;;;25.47;26.49
9335;BME280;4706;41.844;26.082;2023-04-02T10:33:51;99936.03;;;25.83;26.95
9335;BME280;4706;41.844;26.082;2023-04-02T10:36:55;99937.31;;;25.75;24.84
9335;BME280;4706;41.844;26.082;2023-04-02T10:39:24;99940.19;;;25.68;26.24
9335;BME280;4706;41.844;26.082;2023-04-02T10:47:38;99934.69;;;25.57;26.57
9335;BME280;4706;41.844;26.082;2023-04-02T10:50:25;99933.47;;;25.58;27.07
9335;BME280;4706;41.844;26.082;2023-04-02T10:53:05;99935.66;;;25.81;25.72
9335;BME280;4706;41.844;26.082;2023-04-02T10:55:37;99917.59;;;25.75;26.23
9335;BME280;4706;41.844;26.082;2023-04-02T10:58:25;99916.00;;;26.08;26.74
9335;BME280;4706;41.844;26.082;2023-04-02T11:00:58;99925.22;;;26.39;24.74
9335;BME280;4706;41.844;26.082;2023-04-02T11:06:09;99902.59;;;26.74;25.24
9335;BME280;4706;41.844;26.082;2023-04-02T11:08:43;99907.44;;;26.97;25.42
9335;BME280;4706;41.844;26.082;2023-04-02T11:11:29;99915.44;;;27.02;24.53
9335;BME280;4706;41.844;26.082;2023-04-02T11:14:36;99905.72;;;27.03;24.53
9335;BME280;4706;41.844;26.082;2023-04-02T11:16:56;99906.59;;;27.00;24.86
9335;BME280;4706;41.844;26.082;2023-04-02T11:19:32;99909.16;;;26.91;25.25
9335;BME280;4706;41.844;26.082;2023-04-02T11:22:19;99902.34;;;26.64;25.05
9335;BME280;4706;41.844;26.082;2023-04-02T11:24:50;99903.00;;;26.49;25.76
9335;BME280;4706;41.844;26.082;2023-04-02T11:27:33;99900.41;;;26.58;26.81
9335;BME280;4706;41.844;26.082;2023-04-02T11:32:29;99890.72;;;26.86;24.59
9335;BME280;4706;41.844;26.082;2023-04-02T11:37:50;99878.97;;;26.64;24.40
9335;BME280;4706;41.844;26.082;2023-04-02T11:42:46;99883.78;;;26.91;25.25
9335;BME280;4706;41.844;26.082;2023-04-02T11:50:32;99883.19;;;27.46;23.87
9335;BME280;4706;41.844;26.082;2023-04-02T11:53:19;99866.72;;;27.21;23.56
9335;BME280;4706;41.844;26.082;2023-04-02T11:56:05;99876.91;;;27.58;23.96
9335;BME280;4706;41.844;26.082;2023-04-02T11:58:53;99877.25;;;27.60;23.84
9335;BME280;4706;41.844;26.082;2023-04-02T12:09:44;99850.25;;;27.79;23.38
9335;BME280;4706;41.844;26.082;2023-04-02T12:12:37;99854.88;;;27.70;23.56
9335;BME280;4706;41.844;26.082;2023-04-02T12:15:23;99844.09;;;27.84;23.07
9335;BME280;4706;41.844;26.082;2023-04-02T12:17:52;99838.31;;;28.08;23.50
9335;BME280;4706;41.844;26.082;2023-04-02T12:20:23;99835.88;;;28.26;23.75
9335;BME280;4706;41.844;26.082;2023-04-02T12:22:53;99836.06;;;28.36;23.38
9335;BME280;4706;41.844;26.082;2023-04-02T12:25:26;99835.88;;;28.26;23.27
9335;BME280;4706;41.844;26.082;2023-04-02T12:30:29;99833.03;;;28.10;24.27
9335;BME280;4706;41.844;26.082;2023-04-02T12:32:55;99823.41;;;28.24;23.53
9335;BME280;4706;41.844;26.082;2023-04-02T12:35:28;99828.91;;;28.31;23.35
9335;BME280;4706;41.844;26.082;2023-04-02T12:37:55;99808.47;;;28.23;23.42
9335;BME280;4706;41.844;26.082;2023-04-02T12:40:23;99814.13;;;28.23;23.09
9335;BME280;4706;41.844;26.082;2023-04-02T12:42:49;99813.66;;;27.92;22.86
9335;BME280;4706;41.844;26.082;2023-04-02T12:45:23;99816.53;;;27.09;23.74
9335;BME280;4706;41.844;26.082;2023-04-02T12:47:49;99822.31;;;26.28;24.43
9335;BME280;4706;41.844;26.082;2023-04-02T12:50:15;99812.44;;;26.39;24.71
9335;BME280;4706;41.844;26.082;2023-04-02T12:52:46;99818.59;;;26.34;24.54
9335;BME280;4706;41.844;26.082;2023-04-02T12:55:21;99819.50;;;26.01;25.09
9335;BME280;4706;41.844;26.082;2023-04-02T12:57:47;99811.41;;;25.38;26.41
9335;BME280;4706;41.844;26.082;2023-04-02T13:02:47;99807.94;;;24.33;28.03
9335;BME280;4706;41.844;26.082;2023-04-02T13:05:37;99808.16;;;24.08;29.08
9335;BME280;4706;41.844;26.082;2023-04-02T13:08:05;99816.31;;;23.88;28.61
9335;BME280;4706;41.844;26.082;2023-04-02T13:10:31;99815.97;;;23.61;29.16
9335;BME280;4706;41.844;26.082;2023-04-02T13:12:59;99815.16;;;23.64;28.92
9335;BME280;4706;41.844;26.082;2023-04-02T13:15:32;99810.38;;;23.68;29.01
9335;BME280;4706;41.844;26.082;2023-04-02T13:18:26;99812.41;;;23.57;29.58
9335;BME280;4706;41.844;26.082;2023-04-02T13:21:00;99817.72;;;23.23;29.49
9335;BME280;4706;41.844;26.082;2023-04-02T13:23:35;99809.75;;;23.07;30.99
9335;BME280;4706;41.844;26.082;2023-04-02T13:28:32;99813.72;;;23.24;29.83
9335;BME280;4706;41.844;26.082;2023-04-02T13:30:58;99816.59;;;23.06;29.93
9335;BME280;4706;41.844;26.082;2023-04-02T13:33:23;99815.75;;;23.13;29.46
9335;BME280;4706;41.844;26.082;2023-04-02T13:35:49;99798.56;;;22.86;29.95
9335;BME280;4706;41.844;26.082;2023-04-02T13:38:14;99804.19;;;22.93;30.17
9335;BME280;4706;41.844;26.082;2023-04-02T13:40:40;99809.38;;;22.84;30.51
9335;BME280;4706;41.844;26.082;2023-04-02T13:43:06;99807.75;;;22.86;29.82
9335;BME280;4706;41.844;26.082;2023-04-02T13:45:35;99784.94;;;22.81;29.71
9335;BME280;4706;41.844;26.082;2023-04-02T13:48:02;99803.78;;;22.84;29.70
9335;BME280;4706;41.844;26.082;2023-04-02T13:50:29;99799.34;;;22.79;30.13
9335;BME280;4706;41.844;26.082;2023-04-02T13:52:57;99796.19;;;22.59;30.62
9335;BME280;4706;41.844;26.082;2023-04-02T13:55:27;99800.56;;;22.57;30.93
9335;BME280;4706;41.844;26.082;2023-04-02T13:57:54;99793.38;;;22.55;30.60
9335;BME280;4706;41.844;26.082;2023-04-02T14:00:20;99806.59;;;22.76;30.75
9335;BME280;4706;41.844;26.082;2023-04-02T14:02:50;99799.38;;;22.75;30.76
9335;BME280;4706;41.844;26.082;2023-04-02T14:08:07;99810.19;;;22.59;31.43
9335;BME280;4706;41.844;26.082;2023-04-02T14:10:47;99801.78;;;22.59;31.81
9335;BME280;4706;41.844;26.082;2023-04-02T14:16:15;99794.19;;;22.49;32.21
9335;BME280;4706;41.844;26.082;2023-04-02T14:18:58;99795.38;;;22.48;31.95
9335;BME280;4706;41.844;26.082;2023-04-02T14:27:07;99802.19;;;22.36;34.18
9335;BME280;4706;41.844;26.082;2023-04-02T14:29:40;99792.56;;;22.37;34.37
9335;BME280;4706;41.844;26.082;2023-04-02T14:33:17;99797.78;;;22.32;34.52
9335;BME280;4706;41.844;26.082;2023-04-02T14:35:45;99782.50;;;22.04;35.70
9335;BME280;4706;41.844;26.082;2023-04-02T14:40:59;99777.75;;;22.08;35.64
9335;BME280;4706;41.844;26.082;2023-04-02T14:43:58;99782.13;;;22.02;37.04
9335;BME280;4706;41.844;26.082;2023-04-02T14:46:26;99785.31;;;22.07;37.75
9335;BME280;4706;41.844;26.082;2023-04-02T14:54:16;99780.50;;;21.87;40.32
9335;BME280;4706;41.844;26.082;2023-04-02T14:56:59;99782.47;;;21.79;40.83
9335;BME280;4706;41.844;26.082;2023-04-02T15:02:17;99797.28;;;21.79;40.03
9335;BME280;4706;41.844;26.082;2023-04-02T15:05:03;99799.66;;;21.77;40.23
9335;BME280;4706;41.844;26.082;2023-04-02T15:07:36;99796.84;;;21.67;40.18
9335;BME280;4706;41.844;26.082;2023-04-02T15:10:28;99792.44;;;21.69;40.69
9335;BME280;4706;41.844;26.082;2023-04-02T15:12:56;99787.22;;;21.57;40.91
9335;BME280;4706;41.844;26.082;2023-04-02T15:15:43;99792.44;;;21.69;40.98
9335;BME280;4706;41.844;26.082;2023-04-02T15:18:16;99794.78;;;21.53;41.09
9335;BME280;4706;41.844;26.082;2023-04-02T15:23:52;99801.13;;;21.43;41.19
9335;BME280;4706;41.844;26.082;2023-04-02T15:28:58;99797.03;;;21.26;41.79
9335;BME280;4706;41.844;26.082;2023-04-02T15:31:27;99805.09;;;21.34;40.67
9335;BME280;4706;41.844;26.082;2023-04-02T15:37:11;99810.66;;;21.31;41.68
9335;BME280;4706;41.844;26.082;2023-04-02T15:39:56;99806.91;;;21.05;42.06
9335;BME280;4706;41.844;26.082;2023-04-02T15:42:29;99801.03;;;21.28;41.15
9335;BME280;4706;41.844;26.082;2023-04-02T15:52:53;99837.34;;;21.18;42.54
9335;BME280;4706;41.844;26.082;2023-04-02T15:55:25;99833.72;;;21.10;42.96
9335;BME280;4706;41.844;26.082;2023-04-02T15:58:22;99836.09;;;21.08;43.39
9335;BME280;4706;41.844;26.082;2023-04-02T16:09:02;99845.50;;;20.82;44.42
9335;BME280;4706;41.844;26.082;2023-04-02T16:11:31;99841.03;;;20.74;44.43
9335;BME280;4706;41.844;26.082;2023-04-02T16:16:45;99839.59;;;20.46;44.97
9335;BME280;4706;41.844;26.082;2023-04-02T16:22:05;99839.66;;;20.53;45.01
9335;BME280;4706;41.844;26.082;2023-04-02T16:24:35;99836.81;;;20.46;45.17
9335;BME280;4706;41.844;26.082;2023-04-02T16:33:24;99844.47;;;20.53;44.79
9335;BME280;4706;41.844;26.082;2023-04-02T16:38:45;99832.03;;;20.47;44.97
9335;BME280;4706;41.844;26.082;2023-04-02T16:41:39;99842.09;;;20.55;45.08
9335;BME280;4706;41.844;26.082;2023-04-02T16:46:59;99843.69;;;20.56;44.95
9335;BME280;4706;41.844;26.082;2023-04-02T17:00:26;99875.41;;;20.37;47.43
9335;BME280;4706;41.844;26.082;2023-04-02T17:06:41;99874.81;;;20.17;48.92
9335;BME280;4706;41.844;26.082;2023-04-02T17:09:26;99868.41;;;20.13;49.44
9335;BME280;4706;41.844;26.082;2023-04-02T17:14:39;99867.28;;;20.21;49.30
9335;BME280;4706;41.844;26.082;2023-04-02T17:17:08;99819.09;;;19.91;49.40
9335;BME280;4706;41.844;26.082;2023-04-02T17:19:37;99864.84;;;20.20;49.32
9335;BME280;4706;41.844;26.082;2023-04-02T17:22:04;99884.06;;;20.25;48.84
9335;BME280;4706;41.844;26.082;2023-04-02T17:24:53;99891.63;;;20.21;48.76